sensor_id;sensor_type;location;lat;lon;timestamp;pressure;altitude;pressure_sealevel;temperature;humidity
12951;BME280;6540;50.858;7.232;2023-09-07T00:01:23;51594.31;;;-142.34;27.80
12951;BME280;6540;50.858;7.232;2023-09-07T00:03:48;51556.00;;;-142.34;26.95
12951;BME280;6540;50.858;7.232;2023-09-07T00:06:14;51580.19;;;-142.34;27.70
12951;BME280;6540;50.858;7.232;2023-09-07T00:08:39;51608.44;;;-142.34;28.29
12951;BME280;6540;50.858;7.232;2023-09-07T00:11:08;51541.88;;;-142.34;27.11
12951;BME280;6540;50.858;7.232;2023-09-07T00:13:34;51588.28;;;-142.34;28.21
12951;BME280;6540;50.858;7.232;2023-09-07T00:16:02;51568.09;;;-142.34;27.39
12951;BME280;6540;50.858;7.232;2023-09-07T00:18:28;51556.00;;;-142.34;27.22
12951;BME280;6540;50.858;7.232;2023-09-07T00:20:53;51588.28;;;-142.34;28.05
12951;BME280;6540;50.858;7.232;2023-09-07T00:23:18;51600.38;;;-142.34;28.78
12951;BME280;6540;50.858;7.232;2023-09-07T00:25:45;51616.50;;;-142.34;28.69
12951;BME280;6540;50.858;7.232;2023-09-07T00:28:10;51624.56;;;-142.34;29.08
12951;BME280;6540;50.858;7.232;2023-09-07T00:30:36;51572.13;;;-142.34;28.43
12951;BME280;6540;50.858;7.232;2023-09-07T00:33:01;51616.50;;;-142.34;28.49
12951;BME280;6540;50.858;7.232;2023-09-07T00:35:26;51576.16;;;-142.34;29.10
12951;BME280;6540;50.858;7.232;2023-09-07T00:37:52;51549.94;;;-142.34;27.58
12951;BME280;6540;50.858;7.232;2023-09-07T00:40:17;51547.94;;;-142.34;27.52
12951;BME280;6540;50.858;7.232;2023-09-07T00:42:42;51543.88;;;-142.34;27.22
12951;BME280;6540;50.858;7.232;2023-09-07T00:45:08;51568.09;;;-142.34;27.30
12951;BME280;6540;50.858;7.232;2023-09-07T00:47:34;51537.84;;;-142.34;27.02
12951;BME280;6540;50.858;7.232;2023-09-07T00:50:02;51543.88;;;-142.34;26.95
12951;BME280;6540;50.858;7.232;2023-09-07T00:52:28;51564.06;;;-142.34;27.00
12951;BME280;6540;50.858;7.232;2023-09-07T00:54:53;51562.03;;;-142.34;27.65
12951;BME280;6540;50.858;7.232;2023-09-07T00:57:19;51547.94;;;-142.34;26.78
12951;BME280;6540;50.858;7.232;2023-09-07T00:59:44;51562.03;;;-142.34;27.39
12951;BME280;6540;50.858;7.232;2023-09-07T01:02:10;51598.34;;;-142.34;28.41
12951;BME280;6540;50.858;7.232;2023-09-07T01:04:35;51560.03;;;-142.34;26.71
12951;BME280;6540;50.858;7.232;2023-09-07T01:07:13;51547.94;;;-142.34;26.59
12951;BME280;6540;50.858;7.232;2023-09-07T01:09:40;51525.75;;;-142.34;27.00
12951;BME280;6540;50.858;7.232;2023-09-07T01:12:06;51588.28;;;-142.34;27.65
12951;BME280;6540;50.858;7.232;2023-09-07T01:14:36;51572.13;;;-142.34;28.03
12951;BME280;6540;50.858;7.232;2023-09-07T01:17:01;51612.47;;;-142.34;28.29
12951;BME280;6540;50.858;7.232;2023-09-07T01:19:27;51618.53;;;-142.34;27.97
12951;BME280;6540;50.858;7.232;2023-09-07T01:21:52;51586.25;;;-142.34;28.54
12951;BME280;6540;50.858;7.232;2023-09-07T01:24:18;51592.31;;;-142.34;28.08
12951;BME280;6540;50.858;7.232;2023-09-07T01:26:46;51574.16;;;-142.34;26.85
12951;BME280;6540;50.858;7.232;2023-09-07T01:29:14;51531.78;;;-142.34;26.53
12951;BME280;6540;50.858;7.232;2023-09-07T01:31:42;51447.06;;;-142.34;25.64
12951;BME280;6540;50.858;7.232;2023-09-07T01:34:07;51499.50;;;-142.34;25.54
12951;BME280;6540;50.858;7.232;2023-09-07T01:36:33;51489.44;;;-142.34;25.68
12951;BME280;6540;50.858;7.232;2023-09-07T01:38:59;51497.50;;;-142.34;25.63
12951;BME280;6540;50.858;7.232;2023-09-07T01:41:24;51511.63;;;-142.34;25.83
12951;BME280;6540;50.858;7.232;2023-09-07T01:43:50;51491.44;;;-142.34;25.37
12951;BME280;6540;50.858;7.232;2023-09-07T01:46:15;51491.44;;;-142.34;25.52
12951;BME280;6540;50.858;7.232;2023-09-07T01:48:40;51507.59;;;-142.34;25.95
12951;BME280;6540;50.858;7.232;2023-09-07T01:51:07;51582.22;;;-142.34;26.54
12951;BME280;6540;50.858;7.232;2023-09-07T01:53:32;51560.03;;;-142.34;26.34
12951;BME280;6540;50.858;7.232;2023-09-07T01:55:58;51539.84;;;-142.34;26.39
12951;BME280;6540;50.858;7.232;2023-09-07T01:58:24;51572.13;;;-142.34;26.32
12951;BME280;6540;50.858;7.232;2023-09-07T02:00:50;51588.28;;;-142.34;26.10
12951;BME280;6540;50.858;7.232;2023-09-07T02:03:15;51549.94;;;-142.34;26.31
12951;BME280;6540;50.858;7.232;2023-09-07T02:05:40;51562.03;;;-142.34;26.76
12951;BME280;6540;50.858;7.232;2023-09-07T02:08:06;51539.84;;;-142.34;26.17
12951;BME280;6540;50.858;7.232;2023-09-07T02:10:33;51551.97;;;-142.34;25.19
12951;BME280;6540;50.858;7.232;2023-09-07T02:12:58;51523.72;;;-142.34;25.78
12951;BME280;6540;50.858;7.232;2023-09-07T02:15:23;51551.97;;;-142.34;25.92
12951;BME280;6540;50.858;7.232;2023-09-07T02:17:49;51539.84;;;-142.34;26.29
12951;BME280;6540;50.858;7.232;2023-09-07T02:20:14;51551.97;;;-142.34;26.29
12951;BME280;6540;50.858;7.232;2023-09-07T02:22:39;51539.84;;;-142.34;26.46
12951;BME280;6540;50.858;7.232;2023-09-07T02:25:06;51570.13;;;-142.34;26.55
12951;BME280;6540;50.858;7.232;2023-09-07T02:27:35;51560.03;;;-142.34;26.10
12951;BME280;6540;50.858;7.232;2023-09-07T02:30:02;51519.69;;;-142.34;25.94
12951;BME280;6540;50.858;7.232;2023-09-07T02:32:27;51566.09;;;-142.34;26.10
12951;BME280;6540;50.858;7.232;2023-09-07T02:34:53;51580.19;;;-142.34;26.33
12951;BME280;6540;50.858;7.232;2023-09-07T02:37:18;51568.09;;;-142.34;26.34
12951;BME280;6540;50.858;7.232;2023-09-07T02:39:43;51576.16;;;-142.34;26.66
12951;BME280;6540;50.858;7.232;2023-09-07T02:42:09;51622.56;;;-142.34;27.32
12951;BME280;6540;50.858;7.232;2023-09-07T02:44:34;51608.44;;;-142.34;27.21
12951;BME280;6540;50.858;7.232;2023-09-07T02:47:00;51620.53;;;-142.34;27.03
12951;BME280;6540;50.858;7.232;2023-09-07T02:49:26;51632.66;;;-142.34;27.71
12951;BME280;6540;50.858;7.232;2023-09-07T02:51:51;51596.34;;;-142.34;27.51
12951;BME280;6540;50.858;7.232;2023-09-07T02:54:16;51610.47;;;-142.34;27.27
12951;BME280;6540;50.858;7.232;2023-09-07T02:56:42;51580.19;;;-142.34;27.07
12951;BME280;6540;50.858;7.232;2023-09-07T02:59:07;51582.22;;;-142.34;27.22
12951;BME280;6540;50.858;7.232;2023-09-07T03:01:33;51553.97;;;-142.34;26.61
12951;BME280;6540;50.858;7.232;2023-09-07T03:03:59;51592.31;;;-142.34;26.43
12951;BME280;6540;50.858;7.232;2023-09-07T03:06:24;51551.97;;;-142.34;26.00
12951;BME280;6540;50.858;7.232;2023-09-07T03:08:50;51572.13;;;-142.34;27.20
12951;BME280;6540;50.858;7.232;2023-09-07T03:11:17;51594.31;;;-142.34;26.51
12951;BME280;6540;50.858;7.232;2023-09-07T03:13:43;51566.09;;;-142.34;26.54
12951;BME280;6540;50.858;7.232;2023-09-07T03:16:08;51572.13;;;-142.34;27.18
12951;BME280;6540;50.858;7.232;2023-09-07T03:18:34;51543.88;;;-142.34;26.74
12951;BME280;6540;50.858;7.232;2023-09-07T03:21:00;51584.22;;;-142.34;27.63
12951;BME280;6540;50.858;7.232;2023-09-07T03:23:27;51543.88;;;-142.34;26.46
12951;BME280;6540;50.858;7.232;2023-09-07T03:25:53;51568.09;;;-142.34;26.99
12951;BME280;6540;50.858;7.232;2023-09-07T03:28:18;51624.56;;;-142.34;27.92
12951;BME280;6540;50.858;7.232;2023-09-07T03:30:43;51580.19;;;-142.34;26.83
12951;BME280;6540;50.858;7.232;2023-09-07T03:33:09;51572.13;;;-142.34;26.85
12951;BME280;6540;50.858;7.232;2023-09-07T03:35:34;51622.56;;;-142.34;28.42
12951;BME280;6540;50.858;7.232;2023-09-07T03:37:59;51574.16;;;-142.34;26.88
12951;BME280;6540;50.858;7.232;2023-09-07T03:40:25;51590.28;;;-142.34;26.59
12951;BME280;6540;50.858;7.232;2023-09-07T03:42:50;51551.97;;;-142.34;25.91
12951;BME280;6540;50.858;7.232;2023-09-07T03:45:16;51592.31;;;-142.34;27.21
12951;BME280;6540;50.858;7.232;2023-09-07T03:47:42;51556.00;;;-142.34;26.56
12951;BME280;6540;50.858;7.232;2023-09-07T03:50:07;51553.97;;;-142.34;26.05
12951;BME280;6540;50.858;7.232;2023-09-07T03:52:33;51570.13;;;-142.34;26.59
12951;BME280;6540;50.858;7.232;2023-09-07T03:54:59;51596.34;;;-142.34;26.73
12951;BME280;6540;50.858;7.232;2023-09-07T03:57:25;51562.03;;;-142.34;26.91
12951;BME280;6540;50.858;7.232;2023-09-07T03:59:50;51578.19;;;-142.34;26.37
12951;BME280;6540;50.858;7.232;2023-09-07T04:02:16;51551.97;;;-142.34;26.40
12951;BME280;6540;50.858;7.232;2023-09-07T04:04:48;51562.03;;;-142.34;26.78
12951;BME280;6540;50.858;7.232;2023-09-07T04:07:14;51541.88;;;-142.34;26.09
12951;BME280;6540;50.858;7.232;2023-09-07T04:09:39;51521.69;;;-142.34;26.17
12951;BME280;6540;50.858;7.232;2023-09-07T04:12:05;51523.72;;;-142.34;25.82
12951;BME280;6540;50.858;7.232;2023-09-07T04:14:31;51539.84;;;-142.34;25.80
12951;BME280;6540;50.858;7.232;2023-09-07T04:16:57;51511.63;;;-142.34;25.51
12951;BME280;6540;50.858;7.232;2023-09-07T04:19:22;51551.97;;;-142.34;25.56
12951;BME280;6540;50.858;7.232;2023-09-07T04:21:48;51527.75;;;-142.34;26.12
12951;BME280;6540;50.858;7.232;2023-09-07T04:24:13;51596.34;;;-142.34;26.22
12951;BME280;6540;50.858;7.232;2023-09-07T04:26:38;51576.16;;;-142.34;25.82
12951;BME280;6540;50.858;7.232;2023-09-07T04:29:06;51543.88;;;-142.34;25.49
12951;BME280;6540;50.858;7.232;2023-09-07T04:31:32;51562.03;;;-142.34;25.26
12951;BME280;6540;50.858;7.232;2023-09-07T04:33:57;51527.75;;;-142.34;25.25
12951;BME280;6540;50.858;7.232;2023-09-07T04:36:22;51543.88;;;-142.34;25.85
12951;BME280;6540;50.858;7.232;2023-09-07T04:38:48;51582.22;;;-142.34;25.95
12951;BME280;6540;50.858;7.232;2023-09-07T04:41:14;51523.72;;;-142.34;25.73
12951;BME280;6540;50.858;7.232;2023-09-07T04:43:41;51551.97;;;-142.34;25.66
12951;BME280;6540;50.858;7.232;2023-09-07T04:46:10;51547.94;;;-142.34;25.49
12951;BME280;6540;50.858;7.232;2023-09-07T04:48:37;51572.13;;;-142.34;26.00
12951;BME280;6540;50.858;7.232;2023-09-07T04:51:05;51545.91;;;-142.34;26.15
12951;BME280;6540;50.858;7.232;2023-09-07T04:53:32;51600.38;;;-142.34;26.03
12951;BME280;6540;50.858;7.232;2023-09-07T04:55:58;51578.19;;;-142.34;26.20
12951;BME280;6540;50.858;7.232;2023-09-07T04:58:24;51564.06;;;-142.34;25.85
12951;BME280;6540;50.858;7.232;2023-09-07T05:00:50;51600.38;;;-142.34;26.84
12951;BME280;6540;50.858;7.232;2023-09-07T05:03:16;51556.00;;;-142.34;25.90
12951;BME280;6540;50.858;7.232;2023-09-07T05:05:41;51556.00;;;-142.34;25.86
12951;BME280;6540;50.858;7.232;2023-09-07T05:08:07;51568.09;;;-142.34;25.66
12951;BME280;6540;50.858;7.232;2023-09-07T05:10:36;51590.28;;;-142.34;27.11
12951;BME280;6540;50.858;7.232;2023-09-07T05:13:01;51610.47;;;-142.34;26.97
12951;BME280;6540;50.858;7.232;2023-09-07T05:15:27;51636.69;;;-142.34;27.03
12951;BME280;6540;50.858;7.232;2023-09-07T05:17:53;51620.53;;;-142.34;26.87
12951;BME280;6540;50.858;7.232;2023-09-07T05:20:18;51578.19;;;-142.34;26.52
12951;BME280;6540;50.858;7.232;2023-09-07T05:22:44;51547.94;;;-142.34;25.98
12951;BME280;6540;50.858;7.232;2023-09-07T05:25:09;51535.81;;;-142.34;25.95
12951;BME280;6540;50.858;7.232;2023-09-07T05:27:35;51535.81;;;-142.34;25.67
12951;BME280;6540;50.858;7.232;2023-09-07T05:30:01;51543.88;;;-142.34;25.77
12951;BME280;6540;50.858;7.232;2023-09-07T05:32:27;51572.13;;;-142.34;26.11
12951;BME280;6540;50.858;7.232;2023-09-07T05:34:52;51560.03;;;-142.34;26.47
12951;BME280;6540;50.858;7.232;2023-09-07T05:37:17;51560.03;;;-142.34;25.65
12951;BME280;6540;50.858;7.232;2023-09-07T05:39:43;51549.94;;;-142.34;25.77
12951;BME280;6540;50.858;7.232;2023-09-07T05:42:08;51525.75;;;-142.34;25.41
12951;BME280;6540;50.858;7.232;2023-09-07T05:44:33;51531.78;;;-142.34;25.49
12951;BME280;6540;50.858;7.232;2023-09-07T05:46:59;51566.09;;;-142.34;25.51
12951;BME280;6540;50.858;7.232;2023-09-07T05:49:24;51551.97;;;-142.34;25.78
12951;BME280;6540;50.858;7.232;2023-09-07T05:51:50;51553.97;;;-142.34;25.52
12951;BME280;6540;50.858;7.232;2023-09-07T05:54:15;51543.88;;;-142.34;26.05
12951;BME280;6540;50.858;7.232;2023-09-07T05:56:40;51584.22;;;-142.34;26.04
12951;BME280;6540;50.858;7.232;2023-09-07T05:59:06;51604.41;;;-142.34;26.43
12951;BME280;6540;50.858;7.232;2023-09-07T06:01:31;51602.38;;;-142.34;26.79
12951;BME280;6540;50.858;7.232;2023-09-07T06:03:57;51596.34;;;-142.34;27.28
12951;BME280;6540;50.858;7.232;2023-09-07T06:06:23;51568.09;;;-142.34;27.13
12951;BME280;6540;50.858;7.232;2023-09-07T06:08:49;51642.72;;;-142.34;28.93
12951;BME280;6540;50.858;7.232;2023-09-07T06:11:14;51628.63;;;-142.34;26.83
12951;BME280;6540;50.858;7.232;2023-09-07T06:13:39;51586.25;;;-142.34;26.25
12951;BME280;6540;50.858;7.232;2023-09-07T06:16:05;51539.84;;;-142.34;25.95
12951;BME280;6540;50.858;7.232;2023-09-07T06:18:30;51535.81;;;-142.34;25.69
12951;BME280;6540;50.858;7.232;2023-09-07T06:20:55;51539.84;;;-142.34;25.58
12951;BME280;6540;50.858;7.232;2023-09-07T06:23:21;51535.81;;;-142.34;25.81
12951;BME280;6540;50.858;7.232;2023-09-07T06:25:46;51541.88;;;-142.34;26.06
12951;BME280;6540;50.858;7.232;2023-09-07T06:28:11;51519.69;;;-142.34;26.13
12951;BME280;6540;50.858;7.232;2023-09-07T06:30:38;51517.66;;;-142.34;26.17
12951;BME280;6540;50.858;7.232;2023-09-07T06:33:04;51497.50;;;-142.34;25.59
12951;BME280;6540;50.858;7.232;2023-09-07T06:35:29;51527.75;;;-142.34;26.12
12951;BME280;6540;50.858;7.232;2023-09-07T06:37:55;51515.66;;;-142.34;26.05
12951;BME280;6540;50.858;7.232;2023-09-07T06:40:21;51543.88;;;-142.34;26.40
12951;BME280;6540;50.858;7.232;2023-09-07T06:42:47;51483.38;;;-142.34;26.11
12951;BME280;6540;50.858;7.232;2023-09-07T06:45:12;51495.47;;;-142.34;25.91
12951;BME280;6540;50.858;7.232;2023-09-07T06:47:37;51545.91;;;-142.34;26.15
12951;BME280;6540;50.858;7.232;2023-09-07T06:50:04;51543.88;;;-142.34;26.61
12951;BME280;6540;50.858;7.232;2023-09-07T06:52:29;51527.75;;;-142.34;26.29
12951;BME280;6540;50.858;7.232;2023-09-07T06:54:55;51477.31;;;-142.34;26.03
12951;BME280;6540;50.858;7.232;2023-09-07T06:57:20;51501.53;;;-142.34;26.32
12951;BME280;6540;50.858;7.232;2023-09-07T06:59:46;51479.34;;;-142.34;26.44
12951;BME280;6540;50.858;7.232;2023-09-07T07:02:12;51505.56;;;-142.34;27.00
12951;BME280;6540;50.858;7.232;2023-09-07T07:04:37;51481.34;;;-142.34;26.32
12951;BME280;6540;50.858;7.232;2023-09-07T07:07:02;51471.28;;;-142.34;26.12
12951;BME280;6540;50.858;7.232;2023-09-07T07:09:30;51465.22;;;-142.34;26.10
12951;BME280;6540;50.858;7.232;2023-09-07T07:11:56;51422.88;;;-142.34;25.80
12951;BME280;6540;50.858;7.232;2023-09-07T07:14:21;51426.91;;;-142.34;25.62
12951;BME280;6540;50.858;7.232;2023-09-07T07:20:08;51424.88;;;-142.34;25.91
12951;BME280;6540;50.858;7.232;2023-09-07T07:26:15;51386.56;;;-142.34;25.34
12951;BME280;6540;50.858;7.232;2023-09-07T07:28:41;51402.69;;;-142.34;25.53
12951;BME280;6540;50.858;7.232;2023-09-07T07:31:07;51398.66;;;-142.34;25.68
12951;BME280;6540;50.858;7.232;2023-09-07T07:33:33;51382.53;;;-142.34;25.46
12951;BME280;6540;50.858;7.232;2023-09-07T07:35:59;51358.31;;;-142.34;24.85
12951;BME280;6540;50.858;7.232;2023-09-07T07:38:24;51434.97;;;-142.34;26.01
12951;BME280;6540;50.858;7.232;2023-09-07T07:40:49;51374.44;;;-142.34;25.09
12951;BME280;6540;50.858;7.232;2023-09-07T07:43:15;51384.53;;;-142.34;25.71
12951;BME280;6540;50.858;7.232;2023-09-07T07:45:41;51390.59;;;-142.34;25.65
12951;BME280;6540;50.858;7.232;2023-09-07T07:48:06;51366.38;;;-142.34;24.81
12951;BME280;6540;50.858;7.232;2023-09-07T07:50:36;51346.22;;;-142.34;24.97
12951;BME280;6540;50.858;7.232;2023-09-07T07:53:02;51358.31;;;-142.34;24.86
12951;BME280;6540;50.858;7.232;2023-09-07T07:55:27;51386.56;;;-142.34;25.20
12951;BME280;6540;50.858;7.232;2023-09-07T07:57:52;51400.69;;;-142.34;24.78
12951;BME280;6540;50.858;7.232;2023-09-07T08:00:18;51342.19;;;-142.34;24.36
12951;BME280;6540;50.858;7.232;2023-09-07T08:02:43;51360.34;;;-142.34;24.65
12951;BME280;6540;50.858;7.232;2023-09-07T08:05:09;51382.53;;;-142.34;24.58
12951;BME280;6540;50.858;7.232;2023-09-07T08:07:34;51362.34;;;-142.34;24.87
12951;BME280;6540;50.858;7.232;2023-09-07T08:09:59;51352.28;;;-142.34;24.22
12951;BME280;6540;50.858;7.232;2023-09-07T08:12:25;51346.22;;;-142.34;23.98
12951;BME280;6540;50.858;7.232;2023-09-07T08:14:50;51404.72;;;-142.34;24.43
12951;BME280;6540;50.858;7.232;2023-09-07T08:17:15;51434.97;;;-142.34;25.77
12951;BME280;6540;50.858;7.232;2023-09-07T08:19:41;51346.22;;;-142.34;24.60
12951;BME280;6540;50.858;7.232;2023-09-07T08:22:08;51307.88;;;-142.34;23.71
12951;BME280;6540;50.858;7.232;2023-09-07T08:24:34;51317.97;;;-142.34;24.11
12951;BME280;6540;50.858;7.232;2023-09-07T08:27:00;51398.66;;;-142.34;25.03
12951;BME280;6540;50.858;7.232;2023-09-07T08:29:25;51463.22;;;-142.34;25.90
12951;BME280;6540;50.858;7.232;2023-09-07T08:31:54;51342.19;;;-142.34;24.63
12951;BME280;6540;50.858;7.232;2023-09-07T08:34:20;51463.22;;;-142.34;25.55
12951;BME280;6540;50.858;7.232;2023-09-07T08:36:47;51374.44;;;-142.34;24.43
12951;BME280;6540;50.858;7.232;2023-09-07T08:39:12;51374.44;;;-142.34;24.77
12951;BME280;6540;50.858;7.232;2023-09-07T08:41:39;51317.97;;;-142.34;24.23
12951;BME280;6540;50.858;7.232;2023-09-07T08:44:09;51309.91;;;-142.34;23.96
12951;BME280;6540;50.858;7.232;2023-09-07T08:46:36;51358.31;;;-142.34;24.76
12951;BME280;6540;50.858;7.232;2023-09-07T08:49:02;51297.81;;;-142.34;23.56
12951;BME280;6540;50.858;7.232;2023-09-07T08:51:29;51293.78;;;-142.34;23.91
12951;BME280;6540;50.858;7.232;2023-09-07T08:53:54;51356.31;;;-142.34;24.81
12951;BME280;6540;50.858;7.232;2023-09-07T08:56:21;51301.84;;;-142.34;24.17
12951;BME280;6540;50.858;7.232;2023-09-07T08:58:47;51334.13;;;-142.34;24.23
12951;BME280;6540;50.858;7.232;2023-09-07T09:01:15;51374.44;;;-142.34;24.63
12951;BME280;6540;50.858;7.232;2023-09-07T09:03:41;51297.81;;;-142.34;24.10
12951;BME280;6540;50.858;7.232;2023-09-07T09:06:08;51334.13;;;-142.34;24.28
12951;BME280;6540;50.858;7.232;2023-09-07T09:11:08;51366.38;;;-142.34;24.58
12951;BME280;6540;50.858;7.232;2023-09-07T09:13:34;51315.97;;;-142.34;24.41
12951;BME280;6540;50.858;7.232;2023-09-07T09:15:59;51328.06;;;-142.34;24.51
12951;BME280;6540;50.858;7.232;2023-09-07T09:18:26;51313.94;;;-142.34;24.27
12951;BME280;6540;50.858;7.232;2023-09-07T09:20:52;51386.56;;;-142.34;25.24
12951;BME280;6540;50.858;7.232;2023-09-07T09:23:19;51354.28;;;-142.34;25.12
12951;BME280;6540;50.858;7.232;2023-09-07T09:25:45;51309.91;;;-142.34;24.37
12951;BME280;6540;50.858;7.232;2023-09-07T09:28:10;51275.63;;;-142.34;24.36
12951;BME280;6540;50.858;7.232;2023-09-07T09:30:37;51328.06;;;-142.34;24.56
12951;BME280;6540;50.858;7.232;2023-09-07T09:33:02;51265.53;;;-142.34;23.87
12951;BME280;6540;50.858;7.232;2023-09-07T09:35:31;51305.88;;;-142.34;24.19
12951;BME280;6540;50.858;7.232;2023-09-07T09:38:01;51229.22;;;-142.34;23.41
12951;BME280;6540;50.858;7.232;2023-09-07T09:40:31;51231.25;;;-142.34;24.31
12951;BME280;6540;50.858;7.232;2023-09-07T09:42:57;51388.56;;;-142.34;25.42
12951;BME280;6540;50.858;7.232;2023-09-07T09:45:23;51287.72;;;-142.34;24.35
12951;BME280;6540;50.858;7.232;2023-09-07T09:47:50;51390.59;;;-142.34;25.29
12951;BME280;6540;50.858;7.232;2023-09-07T09:50:18;51326.03;;;-142.34;24.81
12951;BME280;6540;50.858;7.232;2023-09-07T09:52:45;51313.94;;;-142.34;24.46
12951;BME280;6540;50.858;7.232;2023-09-07T09:55:12;51366.38;;;-142.34;25.04
12951;BME280;6540;50.858;7.232;2023-09-07T09:57:38;51362.34;;;-142.34;24.49
12951;BME280;6540;50.858;7.232;2023-09-07T10:00:05;51336.13;;;-142.34;25.31
12951;BME280;6540;50.858;7.232;2023-09-07T10:02:59;51322.00;;;-142.34;24.01
12951;BME280;6540;50.858;7.232;2023-09-07T10:05:26;51313.94;;;-142.34;24.44
12951;BME280;6540;50.858;7.232;2023-09-07T10:07:51;51346.22;;;-142.34;25.19
12951;BME280;6540;50.858;7.232;2023-09-07T10:10:18;51223.19;;;-142.34;23.66
12951;BME280;6540;50.858;7.232;2023-09-07T10:12:45;51231.25;;;-142.34;23.23
12951;BME280;6540;50.858;7.232;2023-09-07T10:15:26;51253.44;;;-142.34;23.85
12951;BME280;6540;50.858;7.232;2023-09-07T10:18:13;51217.13;;;-142.34;23.87
12951;BME280;6540;50.858;7.232;2023-09-07T10:23:16;51241.34;;;-142.34;24.17
12951;BME280;6540;50.858;7.232;2023-09-07T10:25:42;51235.28;;;-142.34;23.32
12951;BME280;6540;50.858;7.232;2023-09-07T10:28:27;51168.72;;;-142.34;22.89
12951;BME280;6540;50.858;7.232;2023-09-07T10:31:04;51295.78;;;-142.34;24.59
12951;BME280;6540;50.858;7.232;2023-09-07T10:33:34;51207.03;;;-142.34;23.72
12951;BME280;6540;50.858;7.232;2023-09-07T10:36:00;51211.06;;;-142.34;23.29
12951;BME280;6540;50.858;7.232;2023-09-07T10:38:27;51245.38;;;-142.34;23.68
12951;BME280;6540;50.858;7.232;2023-09-07T10:40:56;51285.72;;;-142.34;24.20
12951;BME280;6540;50.858;7.232;2023-09-07T10:43:29;51366.38;;;-142.34;24.89
12951;BME280;6540;50.858;7.232;2023-09-07T10:45:56;51267.56;;;-142.34;23.89
12951;BME280;6540;50.858;7.232;2023-09-07T10:48:22;51227.22;;;-142.34;23.87
12951;BME280;6540;50.858;7.232;2023-09-07T10:50:48;51255.44;;;-142.34;23.31
12951;BME280;6540;50.858;7.232;2023-09-07T10:53:15;51205.03;;;-142.34;23.50
12951;BME280;6540;50.858;7.232;2023-09-07T10:55:48;51311.94;;;-142.34;23.94
12951;BME280;6540;50.858;7.232;2023-09-07T10:58:24;51273.59;;;-142.34;24.35
12951;BME280;6540;50.858;7.232;2023-09-07T11:00:52;51340.16;;;-142.34;24.82
12951;BME280;6540;50.858;7.232;2023-09-07T11:03:17;51261.50;;;-142.34;23.92
12951;BME280;6540;50.858;7.232;2023-09-07T11:05:43;51257.47;;;-142.34;24.16
12951;BME280;6540;50.858;7.232;2023-09-07T11:08:08;51253.44;;;-142.34;23.38
12951;BME280;6540;50.858;7.232;2023-09-07T11:10:34;51245.38;;;-142.34;23.80
12951;BME280;6540;50.858;7.232;2023-09-07T11:13:04;51194.94;;;-142.34;23.09
12951;BME280;6540;50.858;7.232;2023-09-07T11:15:31;51209.06;;;-142.34;23.29
12951;BME280;6540;50.858;7.232;2023-09-07T11:17:57;51271.59;;;-142.34;24.07
12951;BME280;6540;50.858;7.232;2023-09-07T11:20:23;51271.59;;;-142.34;24.14
12951;BME280;6540;50.858;7.232;2023-09-07T11:22:49;51350.25;;;-142.34;24.57
12951;BME280;6540;50.858;7.232;2023-09-07T11:25:15;51245.38;;;-142.34;23.90
12951;BME280;6540;50.858;7.232;2023-09-07T11:27:40;51186.88;;;-142.34;22.87
12951;BME280;6540;50.858;7.232;2023-09-07T11:30:06;51322.00;;;-142.34;24.44
12951;BME280;6540;50.858;7.232;2023-09-07T11:32:34;51358.31;;;-142.34;24.68
12951;BME280;6540;50.858;7.232;2023-09-07T11:34:59;51233.25;;;-142.34;23.51
12951;BME280;6540;50.858;7.232;2023-09-07T11:37:25;51192.91;;;-142.34;23.65
12951;BME280;6540;50.858;7.232;2023-09-07T11:39:51;51211.06;;;-142.34;23.09
12951;BME280;6540;50.858;7.232;2023-09-07T11:42:16;51309.91;;;-142.34;23.99
12951;BME280;6540;50.858;7.232;2023-09-07T11:44:42;51259.47;;;-142.34;23.19
12951;BME280;6540;50.858;7.232;2023-09-07T11:47:07;51311.94;;;-142.34;24.00
12951;BME280;6540;50.858;7.232;2023-09-07T11:49:32;51289.75;;;-142.34;22.84
12951;BME280;6540;50.858;7.232;2023-09-07T11:51:58;51221.16;;;-142.34;23.09
12951;BME280;6540;50.858;7.232;2023-09-07T11:54:24;51265.53;;;-142.34;23.51
12951;BME280;6540;50.858;7.232;2023-09-07T11:56:49;51217.13;;;-142.34;23.03
12951;BME280;6540;50.858;7.232;2023-09-07T11:59:14;51217.13;;;-142.34;23.53
12951;BME280;6540;50.858;7.232;2023-09-07T12:01:42;51305.88;;;-142.34;23.40
12951;BME280;6540;50.858;7.232;2023-09-07T12:04:08;51384.53;;;-142.34;24.34
12951;BME280;6540;50.858;7.232;2023-09-07T12:06:33;51231.25;;;-142.34;22.43
12951;BME280;6540;50.858;7.232;2023-09-07T12:09:04;51108.22;;;-142.34;22.68
12951;BME280;6540;50.858;7.232;2023-09-07T12:11:29;51237.28;;;-142.34;22.78
12951;BME280;6540;50.858;7.232;2023-09-07T12:13:56;51229.22;;;-142.34;23.41
12951;BME280;6540;50.858;7.232;2023-09-07T12:16:21;51180.81;;;-142.34;23.29
12951;BME280;6540;50.858;7.232;2023-09-07T12:18:47;51227.22;;;-142.34;23.05
12951;BME280;6540;50.858;7.232;2023-09-07T12:21:12;51229.22;;;-142.34;23.58
12951;BME280;6540;50.858;7.232;2023-09-07T12:23:38;51257.47;;;-142.34;23.53
12951;BME280;6540;50.858;7.232;2023-09-07T12:26:03;51192.91;;;-142.34;22.94
12951;BME280;6540;50.858;7.232;2023-09-07T12:28:30;51174.78;;;-142.34;22.50
12951;BME280;6540;50.858;7.232;2023-09-07T12:30:56;51233.25;;;-142.34;23.30
12951;BME280;6540;50.858;7.232;2023-09-07T12:33:22;51253.44;;;-142.34;23.43
12951;BME280;6540;50.858;7.232;2023-09-07T12:35:47;51184.84;;;-142.34;22.69
12951;BME280;6540;50.858;7.232;2023-09-07T12:38:13;51269.56;;;-142.34;23.80
12951;BME280;6540;50.858;7.232;2023-09-07T12:40:42;51152.59;;;-142.34;22.69
12951;BME280;6540;50.858;7.232;2023-09-07T12:43:08;51170.75;;;-142.34;22.28
12951;BME280;6540;50.858;7.232;2023-09-07T12:45:33;51172.75;;;-142.34;22.17
12951;BME280;6540;50.858;7.232;2023-09-07T12:47:58;51158.63;;;-142.34;21.38
12951;BME280;6540;50.858;7.232;2023-09-07T12:50:26;51136.44;;;-142.34;21.74
12951;BME280;6540;50.858;7.232;2023-09-07T12:52:51;51128.38;;;-142.34;22.55
12951;BME280;6540;50.858;7.232;2023-09-07T12:55:17;51118.28;;;-142.34;21.32
12951;BME280;6540;50.858;7.232;2023-09-07T12:57:44;51144.50;;;-142.34;21.56